Time;durP1;ratioP1;P1;durP2;ratioP2;P2;SDS_P1;SDS_P2;PMS_P1;PMS_P2;Temp;Humidity;BMP_temperature;BMP_pressure;BME280_temperature;BME280_humidity;BME280_pressure;Samples;Min_cycle;Max_cycle;Signal;HPM_P1;HPM_P2
2022/10/29 00:01:14;;;;;;;8.88;2.87;;;;;;;8.39;81.36;102445.34;1913843;75;21044;-54
2022/10/29 00:03:43;;;;;;;6.28;3.30;;;;;;;8.37;81.28;102440.55;1914363;75;21007;-53
2022/10/29 00:06:12;;;;;;;7.30;3.75;;;;;;;8.32;81.30;102441.89;1917403;75;21046;-53
2022/10/29 00:08:42;;;;;;;7.97;3.22;;;;;;;8.28;81.34;102439.70;1917235;75;21059;-54
2022/10/29 00:11:22;;;;;;;6.87;2.60;;;;;;;8.25;81.42;102446.70;1917150;75;21582;-54
2022/10/29 00:13:49;;;;;;;6.20;3.10;;;;;;;8.23;81.41;102441.46;1916182;74;21014;-54
2022/10/29 00:16:20;;;;;;;8.10;3.27;;;;;;;8.19;81.47;102438.41;1923879;74;21042;-54
2022/10/29 00:18:49;;;;;;;5.00;3.20;;;;;;;8.16;81.58;102440.16;1923881;74;21034;-53
2022/10/29 00:21:20;;;;;;;6.05;3.40;;;;;;;8.14;81.61;102436.67;1919473;73;21038;-54
2022/10/29 00:23:49;;;;;;;6.95;3.72;;;;;;;8.12;81.63;102440.16;1923045;74;21019;-57
2022/10/29 00:26:20;;;;;;;9.45;4.45;;;;;;;8.14;81.61;102436.67;1922260;75;21552;-56
2022/10/29 00:28:54;;;;;;;11.10;4.33;;;;;;;8.16;81.53;102439.72;1956066;73;21043;-57
2022/10/29 00:31:23;;;;;;;10.85;4.28;;;;;;;8.16;81.56;102440.16;1891031;76;21133;-58
2022/10/29 00:33:54;;;;;;;13.70;4.35;;;;;;;8.19;81.58;102436.20;1891085;76;21482;-58
2022/10/29 00:36:25;;;;;;;8.08;3.72;;;;;;;8.19;81.60;102433.16;1891144;76;21048;-54
2022/10/29 00:38:55;;;;;;;10.23;4.85;;;;;;;8.19;81.54;102430.54;1893694;74;21048;-57
2022/10/29 00:41:28;;;;;;;10.13;4.22;;;;;;;8.20;81.42;102434.03;1925678;74;21165;-57
2022/10/29 00:44:16;;;;;;;8.33;4.58;;;;;;;8.21;81.34;102430.55;1925810;74;21035;-56
2022/10/29 00:46:48;;;;;;;17.02;5.33;;;;;;;8.23;81.30;102428.34;1925771;74;21059;-57
2022/10/29 00:49:18;;;;;;;10.00;5.58;;;;;;;8.23;81.41;102427.48;1924815;73;21110;-55
2022/10/29 00:51:48;;;;;;;15.53;6.15;;;;;;;8.19;81.66;102426.61;1925608;74;21034;-57
2022/10/29 00:54:17;;;;;;;13.03;5.58;;;;;;;8.21;81.65;102436.66;1925711;74;21063;-57
2022/10/29 00:57:17;;;;;;;10.88;4.40;;;;;;;8.22;81.63;102434.90;1925783;74;21466;-54
2022/10/29 00:59:49;;;;;;;12.58;4.45;;;;;;;8.21;81.65;102434.03;1929231;73;21483;-57
2022/10/29 01:02:18;;;;;;;9.30;3.70;;;;;;;8.21;81.62;102429.23;1919868;75;21032;-57
2022/10/29 01:04:47;;;;;;;12.50;4.37;;;;;;;8.18;81.72;102433.16;1919993;75;21471;-56
2022/10/29 01:07:15;;;;;;;8.55;4.08;;;;;;;8.18;81.79;102430.54;1920045;75;21040;-55
2022/10/29 01:09:44;;;;;;;9.63;5.45;;;;;;;8.19;81.76;102428.33;1920051;75;21008;-59
2022/10/29 01:12:18;;;;;;;9.78;5.20;;;;;;;8.17;81.86;102432.71;1922044;73;21057;-54
2022/10/29 01:14:59;;;;;;;12.90;5.65;;;;;;;8.15;81.89;102434.02;1937905;73;21481;-58
2022/10/29 01:17:30;;;;;;;13.50;5.40;;;;;;;8.13;81.98;102434.47;1925529;73;21128;-57
2022/10/29 01:20:18;;;;;;;13.00;5.70;;;;;;;8.14;82.05;102437.55;1926125;74;21058;-58
2022/10/29 01:23:06;;;;;;;13.45;6.15;;;;;;;8.17;82.12;102439.27;1896257;74;21090;-57
2022/10/29 01:25:46;;;;;;;10.93;5.20;;;;;;;8.23;82.04;102440.59;1927226;74;21563;-58
2022/10/29 01:28:49;;;;;;;8.80;4.70;;;;;;;8.27;81.89;102441.02;1928228;73;21039;-55
2022/10/29 01:31:36;;;;;;;13.08;4.87;;;;;;;8.27;81.90;102440.57;1907066;73;20986;-58
2022/10/29 01:34:22;;;;;;;11.95;3.90;;;;;;;8.25;81.92;102432.28;1943661;73;21465;-57
2022/10/29 01:36:59;;;;;;;8.28;4.15;;;;;;;8.25;81.87;102438.39;1961709;71;21093;-57
2022/10/29 01:39:37;;;;;;;14.23;5.33;;;;;;;8.24;81.90;102436.63;1961686;73;21059;-58
2022/10/29 01:42:14;;;;;;;10.65;5.17;;;;;;;8.21;82.16;102438.42;1960880;71;21402;-53
2022/10/29 01:44:58;;;;;;;10.80;4.80;;;;;;;8.20;82.28;102441.45;1961735;73;21548;-54
2022/10/29 01:47:29;;;;;;;14.68;4.87;;;;;;;8.20;82.34;102443.22;1961972;73;21059;-52
2022/10/29 01:50:01;;;;;;;9.48;5.22;;;;;;;8.19;82.45;102440.14;1955628;73;21473;-51
2022/10/29 01:52:33;;;;;;;8.88;4.83;;;;;;;8.18;82.55;102444.52;1961725;73;21007;-54
2022/10/29 01:55:03;;;;;;;11.08;5.58;;;;;;;8.17;82.71;102448.05;1961606;73;21038;-57
2022/10/29 01:57:37;;;;;;;15.35;5.37;;;;;;;8.15;82.97;102440.58;1961848;73;21462;-57
2022/10/29 02:00:15;;;;;;;10.38;4.90;;;;;;;8.20;82.99;102440.59;1961953;73;21509;-58
2022/10/29 02:03:04;;;;;;;10.00;5.37;;;;;;;8.25;83.00;102440.15;1947579;73;21445;-51
2022/10/29 02:05:58;;;;;;;14.28;5.90;;;;;;;8.28;83.07;102439.70;1920997;74;21063;-55
2022/10/29 02:08:52;;;;;;;10.90;5.08;;;;;;;8.30;83.03;102435.77;1934427;73;21491;-54
2022/10/29 02:11:25;;;;;;;;;;;;;;;8.33;83.04;102434.88;1931956;73;21021;-55
2022/10/29 02:13:56;;;;;;;8.40;4.30;;;;;;;8.39;82.83;102438.38;1962231;73;20146;-56
2022/10/29 02:16:27;;;;;;;16.10;6.55;;;;;;;8.43;82.64;102436.20;1937361;73;21070;-56
2022/10/29 02:18:57;;;;;;;15.50;5.60;;;;;;;8.44;82.70;102435.30;1914716;73;21029;-50
2022/10/29 02:21:26;;;;;;;12.82;4.90;;;;;;;8.44;82.74;102433.13;1896623;74;21046;-56
2022/10/29 02:23:54;;;;;;;11.35;4.65;;;;;;;8.42;82.93;102432.27;1894470;76;21108;-53
2022/10/29 02:26:23;;;;;;;10.75;5.28;;;;;;;8.41;83.00;102432.67;1894516;76;21030;-53
2022/10/29 02:28:52;;;;;;;12.82;5.83;;;;;;;8.41;83.10;102435.30;1897410;73;21038;-53
2022/10/29 02:31:20;;;;;;;10.03;5.90;;;;;;;8.40;83.21;102440.10;1961954;73;21090;-53
2022/10/29 02:33:49;;;;;;;13.80;6.53;;;;;;;8.40;83.17;102437.47;1961812;73;20991;-53
2022/10/29 02:36:18;;;;;;;14.78;6.45;;;;;;;8.43;83.25;102439.27;1956042;73;21249;-53
2022/10/29 02:38:47;;;;;;;15.03;6.12;;;;;;;8.48;83.29;102440.11;1927749;74;21054;-53
2022/10/29 02:41:15;;;;;;;12.33;6.17;;;;;;;8.49;83.30;102440.11;1927831;74;21069;-48
2022/10/29 02:43:44;;;;;;;13.00;5.78;;;;;;;8.50;83.32;102438.34;1927789;74;21069;-50
2022/10/29 02:46:15;;;;;;;15.18;4.95;;;;;;;8.52;83.38;102438.34;1927745;74;21117;-49
2022/10/29 02:48:44;;;;;;;13.75;6.53;;;;;;;8.55;83.25;102437.03;1927347;74;21140;-51
2022/10/29 02:51:13;;;;;;;12.07;6.47;;;;;;;8.59;83.25;102438.77;1927728;74;21085;-51
2022/10/29 02:53:42;;;;;;;10.48;5.20;;;;;;;8.62;83.12;102444.88;1927758;74;21514;-48
2022/10/29 02:56:11;;;;;;;14.33;5.50;;;;;;;8.67;83.02;102447.50;1927874;74;21038;-49
2022/10/29 02:58:40;;;;;;;9.43;5.35;;;;;;;8.68;82.96;102446.16;1925432;74;21034;-51
2022/10/29 03:01:08;;;;;;;13.30;7.55;;;;;;;8.73;82.87;102438.27;1927573;74;21120;-52
2022/10/29 03:03:37;;;;;;;13.28;7.20;;;;;;;8.76;82.83;102443.94;1927735;74;21014;-52
2022/10/29 03:06:17;;;;;;;12.10;6.30;;;;;;;8.76;82.97;102442.63;1927900;74;21367;-52
2022/10/29 03:08:46;;;;;;;12.45;6.25;;;;;;;8.76;83.02;102440.00;1925055;74;21103;-50
2022/10/29 03:11:15;;;;;;;15.43;5.58;;;;;;;8.78;82.94;102438.23;1927731;74;21489;-51
2022/10/29 03:13:44;;;;;;;12.55;4.78;;;;;;;8.80;82.97;102436.06;1927590;74;21125;-52
2022/10/29 03:16:13;;;;;;;12.23;5.60;;;;;;;8.80;82.95;102438.69;1927743;74;21082;-50
2022/10/29 03:18:41;;;;;;;12.23;5.12;;;;;;;8.79;82.89;102441.31;1911041;74;21041;-56
2022/10/29 03:21:10;;;;;;;13.22;5.03;;;;;;;8.79;82.89;102438.69;1894495;76;21093;-53
2022/10/29 03:23:39;;;;;;;13.43;4.83;;;;;;;8.78;82.91;102439.14;1909627;74;21026;-52
2022/10/29 03:26:09;;;;;;;10.88;4.12;;;;;;;8.79;82.88;102433.44;1926467;74;21026;-50
2022/10/29 03:28:38;;;;;;;10.53;4.25;;;;;;;8.80;82.84;102429.49;1920880;74;21104;-54
2022/10/29 03:31:07;;;;;;;10.32;4.50;;;;;;;8.84;82.82;102436.47;1926319;74;21046;-48
2022/10/29 03:33:36;;;;;;;11.18;6.08;;;;;;;8.85;82.77;102435.61;1926608;74;21034;-51
2022/10/29 03:36:06;;;;;;;13.03;5.17;;;;;;;8.89;82.69;102439.09;1925776;74;21034;-53
2022/10/29 03:38:35;;;;;;;9.83;4.90;;;;;;;8.89;82.67;102441.27;1926475;74;21090;-53
2022/10/29 03:41:09;;;;;;;10.18;6.50;;;;;;;8.93;82.58;102442.55;1926369;74;21051;-49
2022/10/29 03:43:36;;;;;;;10.98;5.72;;;;;;;8.95;82.50;102443.44;1927017;73;21025;-47
2022/10/29 03:46:06;;;;;;;11.05;4.78;;;;;;;8.97;82.41;102442.54;1926700;74;20986;-46
2022/10/29 03:48:35;;;;;;;9.40;4.05;;;;;;;8.94;82.42;102437.73;1925727;74;21538;-49
2022/10/29 03:51:06;;;;;;;9.35;4.60;;;;;;;8.88;82.42;102444.77;1926378;74;21054;-49
2022/10/29 03:53:36;;;;;;;9.88;3.72;;;;;;;8.83;82.51;102441.27;1925813;74;21477;-53
2022/10/29 03:56:07;;;;;;;9.03;4.40;;;;;;;8.76;82.67;102442.22;1925876;74;21083;-55
2022/10/29 03:58:35;;;;;;;11.53;4.62;;;;;;;8.69;82.73;102441.80;1906634;74;21140;-55
2022/10/29 04:01:07;;;;;;;8.05;3.72;;;;;;;8.65;82.89;102438.73;1919624;73;21062;-53
2022/10/29 04:03:37;;;;;;;12.23;5.03;;;;;;;8.63;82.95;102439.17;1937925;73;20994;-54
2022/10/29 04:06:12;;;;;;;9.88;4.95;;;;;;;8.61;83.01;102435.27;1939056;73;21034;-53
2022/10/29 04:08:41;;;;;;;14.75;5.42;;;;;;;8.61;83.19;102437.89;1896154;74;21465;-55
2022/10/29 04:11:13;;;;;;;17.37;5.00;;;;;;;8.62;83.36;102436.13;1908628;74;21446;-53
2022/10/29 04:13:42;;;;;;;11.43;5.65;;;;;;;8.62;83.43;102437.45;1906046;74;21515;-53
2022/10/29 04:16:11;;;;;;;19.10;11.57;;;;;;;8.62;83.57;102437.45;1901656;74;21030;-53
2022/10/29 04:18:40;;;;;;;23.38;11.68;;;;;;;8.66;83.67;102437.86;1899805;74;21062;-55
2022/10/29 04:21:09;;;;;;;17.90;11.55;;;;;;;8.72;83.58;102443.53;1911253;74;21088;-53
2022/10/29 04:23:38;;;;;;;15.90;9.68;;;;;;;8.75;83.50;102448.33;1904701;74;21116;-53
2022/10/29 04:26:07;;;;;;;19.30;11.03;;;;;;;8.79;83.55;102447.88;1900009;74;21485;-53
2022/10/29 04:28:36;;;;;;;18.92;11.40;;;;;;;8.80;83.57;102442.63;1906517;74;21031;-51
2022/10/29 04:31:06;;;;;;;21.95;12.55;;;;;;;8.83;83.67;102454.86;1901441;74;21010;-53
2022/10/29 04:33:35;;;;;;;18.80;12.18;;;;;;;8.82;83.80;102450.05;1904498;74;21113;-55
2022/10/29 04:36:05;;;;;;;18.75;9.85;;;;;;;8.81;83.90;102453.55;1905826;74;21113;-53
2022/10/29 04:38:33;;;;;;;13.72;8.60;;;;;;;8.83;83.86;102455.72;1899116;74;21053;-52
2022/10/29 04:41:02;;;;;;;12.03;6.37;;;;;;;8.86;83.84;102459.66;1909110;73;21078;-53
2022/10/29 04:43:31;;;;;;;12.15;5.85;;;;;;;8.89;83.78;102457.03;1902482;74;21761;-53
2022/10/29 04:46:00;;;;;;;12.88;5.10;;;;;;;8.92;83.76;102459.20;1904791;75;21104;-53
2022/10/29 04:48:29;;;;;;;12.25;5.35;;;;;;;8.92;83.78;102463.15;1897914;75;21137;-53
2022/10/29 04:50:58;;;;;;;10.25;5.20;;;;;;;8.95;83.79;102461.83;1893400;75;21108;-52
2022/10/29 04:53:27;;;;;;;13.75;5.92;;;;;;;8.96;83.82;102466.19;1891013;75;21018;-53
2022/10/29 04:56:04;;;;;;;9.83;5.58;;;;;;;9.02;83.86;102466.18;1898996;75;21078;-57
2022/10/29 04:58:32;;;;;;;11.75;6.58;;;;;;;9.08;83.77;102473.57;1901440;75;21567;-56
2022/10/29 05:01:03;;;;;;;12.58;5.83;;;;;;;9.16;83.67;102472.21;1901312;75;21149;-49
2022/10/29 05:03:33;;;;;;;15.20;7.28;;;;;;;9.22;83.61;102469.57;1897591;75;21026;-48
2022/10/29 05:06:06;;;;;;;27.80;16.10;;;;;;;9.31;83.58;102476.95;1898222;75;21597;-51
2022/10/29 05:08:35;;;;;;;27.30;16.17;;;;;;;9.40;83.49;102474.27;1896000;75;21206;-56
2022/10/29 05:11:05;;;;;;;25.12;15.32;;;;;;;9.51;83.25;102476.38;1903615;75;21123;-49
2022/10/29 05:13:34;;;;;;;21.40;12.15;;;;;;;9.61;83.09;102479.84;1899016;75;21073;-51
2022/10/29 05:16:03;;;;;;;22.02;11.80;;;;;;;9.72;82.94;102473.16;1903501;75;21512;-54
2022/10/29 05:18:32;;;;;;;24.18;11.57;;;;;;;9.78;82.81;102481.89;1904902;74;21100;-54
2022/10/29 05:21:01;;;;;;;20.80;10.32;;;;;;;9.86;82.68;102476.56;1901599;75;21172;-52
2022/10/29 05:23:29;;;;;;;20.25;8.10;;;;;;;9.93;82.52;102483.52;1902019;74;21093;-57
2022/10/29 05:25:58;;;;;;;16.50;6.85;;;;;;;10.04;82.34;102487.37;1896688;75;21034;-57
2022/10/29 05:28:27;;;;;;;14.98;6.00;;;;;;;10.11;82.18;102481.63;1901223;75;21127;-57
2022/10/29 05:30:56;;;;;;;13.43;6.55;;;;;;;10.17;82.09;102483.74;1904680;74;21074;-52
2022/10/29 05:33:25;;;;;;;12.15;6.58;;;;;;;10.22;82.22;102483.72;1903801;75;21081;-56
2022/10/29 05:35:54;;;;;;;21.02;6.72;;;;;;;10.30;82.20;102476.59;1901177;75;21042;-56
2022/10/29 05:38:22;;;;;;;16.65;6.00;;;;;;;10.42;82.06;102482.20;1890507;75;21129;-50
2022/10/29 05:40:51;;;;;;;18.77;6.80;;;;;;;10.51;81.88;102478.61;1897682;75;21037;-61
2022/10/29 05:43:19;;;;;;;14.13;7.50;;;;;;;10.62;81.71;102483.30;1898311;74;21035;-52
2022/10/29 05:45:48;;;;;;;19.65;7.78;;;;;;;10.72;81.54;102474.42;1901722;74;21104;-53
2022/10/29 05:48:17;;;;;;;25.45;10.00;;;;;;;10.80;81.38;102481.77;1902497;74;21154;-56
2022/10/29 05:50:46;;;;;;;24.40;10.13;;;;;;;10.87;81.27;102477.77;1897526;74;21105;-56
2022/10/29 05:53:15;;;;;;;29.72;12.20;;;;;;;10.94;81.20;102475.48;1908635;74;21090;-56
2022/10/29 05:55:44;;;;;;;29.37;12.82;;;;;;;11.03;81.06;102477.10;1901537;74;21446;-56
2022/10/29 05:58:14;;;;;;;34.43;13.45;;;;;;;11.12;80.99;102483.14;1903510;74;21024;-56
2022/10/29 06:00:45;;;;;;;30.72;12.98;;;;;;;11.25;80.88;102484.27;1910070;74;21472;-57
2022/10/29 06:03:16;;;;;;;21.40;10.95;;;;;;;11.37;80.82;102485.43;1896666;74;21133;-57
2022/10/29 06:05:46;;;;;;;26.45;10.32;;;;;;;11.51;80.60;102491.37;1902209;74;21078;-57
2022/10/29 06:08:15;;;;;;;20.57;9.83;;;;;;;11.61;80.26;102490.78;1896228;74;21141;-57
2022/10/29 06:10:44;;;;;;;26.77;10.88;;;;;;;11.76;80.11;102487.89;1908550;74;21042;-56
2022/10/29 06:13:18;;;;;;;23.45;9.15;;;;;;;11.92;79.90;102483.73;1907880;73;21062;-57
2022/10/29 06:15:49;;;;;;;23.87;9.45;;;;;;;12.08;79.72;102489.61;1900214;74;21124;-57
2022/10/29 06:18:17;;;;;;;19.98;8.53;;;;;;;12.27;79.49;102480.93;1903912;74;21081;-56
2022/10/29 06:20:46;;;;;;;21.73;8.13;;;;;;;12.41;79.45;102488.58;1895711;74;21108;-48
2022/10/29 06:23:15;;;;;;;17.20;6.70;;;;;;;12.49;79.25;102489.32;1907646;74;21697;-53
2022/10/29 06:25:44;;;;;;;20.48;7.65;;;;;;;12.49;78.67;102488.00;1901435;73;21069;-53
2022/10/29 06:28:17;;;;;;;20.62;7.35;;;;;;;12.61;78.36;102489.06;1908890;74;21077;-56
2022/10/29 06:30:48;;;;;;;15.90;7.75;;;;;;;12.81;78.18;102485.16;1903330;74;21527;-55
2022/10/29 06:33:18;;;;;;;21.57;7.35;;;;;;;13.02;78.06;102481.19;1897136;74;21042;-52
2022/10/29 06:35:48;;;;;;;15.60;5.60;;;;;;;13.23;77.79;102475.89;1908140;74;21058;-52
2022/10/29 06:38:16;;;;;;;12.30;4.97;;;;;;;13.44;77.48;102482.03;1908077;74;21535;-52
2022/10/29 06:40:48;;;;;;;9.43;4.28;;;;;;;13.68;77.21;102478.39;1907386;74;21239;-48
2022/10/29 06:43:17;;;;;;;13.70;4.33;;;;;;;13.93;76.76;102487.06;1900874;74;21603;-57
2022/10/29 06:45:45;;;;;;;8.33;4.30;;;;;;;14.19;76.12;102478.44;1923943;74;21149;-58
2022/10/29 06:50:52;;;;;;;8.93;3.72;;;;;;;14.69;75.14;102474.88;1891193;74;21070;-57
2022/10/29 06:53:21;;;;;;;7.30;2.83;;;;;;;14.91;74.52;102481.75;1903750;74;21437;-56
2022/10/29 06:55:50;;;;;;;14.15;3.75;;;;;;;15.05;73.82;102482.22;1898759;74;21108;-56
2022/10/29 06:58:20;;;;;;;16.87;3.55;;;;;;;15.09;73.46;102476.80;1889288;74;21034;-54
2022/10/29 07:00:49;;;;;;;12.58;4.37;;;;;;;15.24;73.10;102473.23;1901356;74;21461;-55
2022/10/29 07:03:20;;;;;;;14.65;5.37;;;;;;;15.47;72.78;102480.06;1904236;74;21120;-55
2022/10/29 07:05:58;;;;;;;15.85;4.67;;;;;;;15.65;72.47;102480.79;1904366;74;21085;-53
2022/10/29 07:08:27;;;;;;;17.23;5.80;;;;;;;15.74;71.95;102477.86;1897549;74;21548;-53
2022/10/29 07:10:57;;;;;;;16.32;4.78;;;;;;;15.77;71.50;102474.27;1900847;74;21081;-53
2022/10/29 07:13:25;;;;;;;8.00;2.85;;;;;;;16.10;71.21;102473.57;1901707;74;21022;-50
2022/10/29 07:15:54;;;;;;;8.65;3.27;;;;;;;16.66;70.28;102471.59;1894629;74;21022;-50
2022/10/29 07:18:23;;;;;;;9.10;3.77;;;;;;;17.00;69.67;102470.33;1898218;74;21026;-51
2022/10/29 07:20:52;;;;;;;8.68;3.25;;;;;;;17.32;69.17;102469.08;1893905;74;21010;-52
2022/10/29 07:23:20;;;;;;;8.43;3.30;;;;;;;17.77;67.92;102476.58;1904507;74;21010;-53
2022/10/29 07:25:53;;;;;;;8.85;2.80;;;;;;;17.86;66.63;102477.56;1893305;76;21183;-53
2022/10/29 07:28:24;;;;;;;5.85;2.62;;;;;;;17.92;66.55;102476.81;1894434;76;21453;-57
2022/10/29 07:30:55;;;;;;;11.08;2.90;;;;;;;17.76;66.56;102482.35;1894463;75;21131;-50
2022/10/29 07:33:23;;;;;;;8.63;3.00;;;;;;;17.44;66.19;102475.70;1894137;75;21075;-52
2022/10/29 07:35:54;;;;;;;6.35;3.00;;;;;;;17.20;66.61;102475.74;1894529;76;21055;-53
2022/10/29 07:38:22;;;;;;;6.58;2.00;;;;;;;17.19;66.47;102471.37;1894624;76;21121;-53
2022/10/29 07:40:52;;;;;;;9.70;2.70;;;;;;;17.14;65.68;102468.87;1894703;76;21103;-55
2022/10/29 07:43:22;;;;;;;5.10;2.45;;;;;;;17.16;65.44;102467.48;1894497;76;21498;-55
2022/10/29 07:45:51;;;;;;;8.25;2.98;;;;;;;17.22;65.11;102465.90;1894623;76;21019;-53
2022/10/29 07:48:21;;;;;;;6.33;2.47;;;;;;;17.39;65.17;102461.70;1894644;76;21581;-53
2022/10/29 07:50:50;;;;;;;6.33;2.80;;;;;;;17.42;63.86;102462.91;1892232;74;21519;-54
2022/10/29 07:53:19;;;;;;;7.47;3.25;;;;;;;17.23;62.90;102464.98;1891270;74;21552;-55
2022/10/29 07:55:53;;;;;;;7.15;3.27;;;;;;;17.23;62.85;102466.31;1891057;75;21538;-55
2022/10/29 07:58:22;;;;;;;13.22;4.47;;;;;;;17.39;62.84;102469.21;1891209;76;21060;-53
2022/10/29 08:00:53;;;;;;;8.83;3.47;;;;;;;17.49;62.60;102464.41;1891199;76;21470;-55
2022/10/29 08:03:22;;;;;;;7.53;3.52;;;;;;;17.49;61.51;102457.75;1891357;76;21040;-53
2022/10/29 08:05:50;;;;;;;11.03;4.00;;;;;;;17.49;60.95;102461.74;1891041;75;21042;-56
2022/10/29 08:08:19;;;;;;;7.22;2.90;;;;;;;17.68;61.06;102464.03;1891205;76;21579;-55
2022/10/29 08:10:48;;;;;;;9.23;3.72;;;;;;;17.89;60.82;102463.64;1891157;76;21085;-53
2022/10/29 08:13:17;;;;;;;6.62;2.10;;;;;;;18.26;60.45;102462.05;1890747;76;21123;-55
2022/10/29 08:15:48;;;;;;;8.58;2.65;;;;;;;18.59;59.57;102460.14;1891223;76;21048;-53
2022/10/29 08:18:18;;;;;;;10.13;2.67;;;;;;;18.65;58.57;102455.85;1891160;76;21189;-52
2022/10/29 08:20:47;;;;;;;9.70;2.75;;;;;;;18.92;58.37;102456.86;1891100;76;21479;-52
2022/10/29 08:23:15;;;;;;;5.03;2.40;;;;;;;18.97;56.18;102460.19;1891153;76;21108;-52
2022/10/29 08:25:45;;;;;;;6.33;2.20;;;;;;;18.81;54.74;102454.72;1891461;76;21050;-51
2022/10/29 08:28:15;;;;;;;5.78;1.92;;;;;;;19.09;54.68;102450.27;1891703;76;21453;-51
2022/10/29 08:30:47;;;;;;;7.65;2.77;;;;;;;19.65;54.20;102444.41;1891260;76;21185;-50
2022/10/29 08:33:16;;;;;;;4.17;2.20;;;;;;;20.13;53.56;102451.84;1891007;75;21129;-49
2022/10/29 08:35:45;;;;;;;5.08;1.52;;;;;;;20.02;53.06;102442.55;1891481;76;21053;-51
2022/10/29 08:38:13;;;;;;;2.67;1.62;;;;;;;19.47;53.10;102443.51;1891484;76;21026;-51
2022/10/29 08:41:06;;;;;;;5.58;1.87;;;;;;;18.90;53.29;102444.05;1891514;76;21344;-57
2022/10/29 08:43:37;;;;;;;4.17;2.15;;;;;;;18.31;53.59;102444.50;1891159;76;21050;-54
2022/10/29 08:46:18;;;;;;;2.72;1.20;;;;;;;17.82;54.73;102443.96;1891197;75;21198;-54
2022/10/29 08:48:56;;;;;;;3.80;1.80;;;;;;;17.53;55.57;102437.56;1891235;76;21127;-52
2022/10/29 08:51:27;;;;;;;3.05;1.10;;;;;;;17.39;56.25;102436.41;1887411;75;21167;-50
2022/10/29 08:53:57;;;;;;;2.98;1.05;;;;;;;17.19;56.15;102435.43;1883912;75;21048;-57
2022/10/29 08:56:29;;;;;;;4.00;1.32;;;;;;;17.01;56.43;102431.70;1885718;76;21040;-53
2022/10/29 08:59:21;;;;;;;2.22;0.90;;;;;;;16.87;56.38;102436.20;1885581;76;21114;-49
2022/10/29 09:01:52;;;;;;;2.98;0.80;;;;;;;16.71;56.29;102435.91;1885534;76;21117;-52
2022/10/29 09:04:27;;;;;;;3.15;1.37;;;;;;;16.65;56.67;102433.47;1885515;75;21060;-56
2022/10/29 09:07:04;;;;;;;4.62;2.17;;;;;;;16.56;56.59;102431.15;1884245;76;21129;-51
2022/10/29 09:09:35;;;;;;;4.25;1.17;;;;;;;16.48;56.81;102422.61;1884575;76;21017;-52
2022/10/29 09:12:19;;;;;;;4.95;2.02;;;;;;;16.42;56.81;102427.69;1885459;76;21071;-53
2022/10/29 09:14:55;;;;;;;;;;;;;;;16.33;56.83;102424.04;1888315;75;21076;-51
2022/10/29 09:17:33;;;;;;;5.35;2.20;;;;;;;16.30;56.72;102417.49;1885663;76;20635;-53
2022/10/29 09:20:22;;;;;;;8.65;3.40;;;;;;;16.39;57.07;102418.02;1883730;76;21134;-53
2022/10/29 09:23:06;;;;;;;1.57;1.45;;;;;;;16.64;57.12;102415.80;1885584;76;21072;-53
2022/10/29 09:25:37;;;;;;;5.87;2.67;;;;;;;16.90;56.76;102413.48;1885685;75;21052;-50
2022/10/29 09:28:27;;;;;;;3.20;1.52;;;;;;;17.29;55.89;102411.95;1884692;76;21515;-50
2022/10/29 09:31:16;;;;;;;5.47;1.60;;;;;;;18.30;54.08;102413.45;1889171;75;21109;-51
2022/10/29 09:33:48;;;;;;;2.83;0.93;;;;;;;18.55;52.90;102407.84;1901198;75;21858;-49
2022/10/29 09:36:19;;;;;;;5.15;1.12;;;;;;;18.78;51.97;102409.93;1902175;75;21039;-51
2022/10/29 09:39:03;;;;;;;4.65;1.90;;;;;;;18.70;51.01;102411.59;1895686;75;21548;-49
2022/10/29 09:41:32;;;;;;;;;;;;;;;18.33;51.87;102408.84;1898117;75;21100;-52
2022/10/29 09:44:20;;;;;;;5.42;2.62;;;;;;;18.05;53.08;102406.53;1899954;75;20125;-56
2022/10/29 09:46:57;;;;;;;6.35;2.40;;;;;;;17.75;53.58;102401.57;1894726;75;21035;-53
2022/10/29 09:49:42;;;;;;;2.83;1.75;;;;;;;17.40;53.59;102397.73;1903472;75;21066;-50
2022/10/29 09:52:18;;;;;;;2.58;1.67;;;;;;;17.16;53.99;102385.83;1905509;74;21595;-52
2022/10/29 09:54:48;;;;;;;3.50;1.62;;;;;;;17.02;53.97;102389.98;1912780;74;21438;-53
2022/10/29 09:57:20;;;;;;;1.17;0.80;;;;;;;16.96;54.17;102382.63;1910443;74;21457;-53
2022/10/29 10:00:00;;;;;;;2.45;1.10;;;;;;;17.30;53.33;102391.05;1912381;74;21509;-51
2022/10/29 10:02:39;;;;;;;3.75;1.62;;;;;;;17.35;53.29;102381.08;1921487;74;21489;-52
2022/10/29 10:05:17;;;;;;;6.40;1.40;;;;;;;17.33;52.47;102379.80;1926928;74;21524;-50
2022/10/29 10:08:06;;;;;;;6.35;1.40;;;;;;;17.30;52.41;102378.63;1919640;74;21457;-53
2022/10/29 10:10:38;;;;;;;7.47;2.30;;;;;;;17.28;51.86;102376.49;1902339;74;21124;-50
2022/10/29 10:13:08;;;;;;;3.85;1.67;;;;;;;17.36;52.20;102370.38;1901685;74;21597;-51
2022/10/29 10:15:38;;;;;;;1.55;1.10;;;;;;;17.74;51.85;102371.88;1898943;74;21085;-57
2022/10/29 10:18:26;;;;;;;1.70;1.10;;;;;;;18.05;50.97;102365.69;1894786;74;21022;-59
2022/10/29 10:21:10;;;;;;;3.08;0.90;;;;;;;18.98;49.41;102368.95;1900984;74;21139;-59
2022/10/29 10:23:45;;;;;;;1.22;0.88;;;;;;;18.98;49.00;102360.50;1900367;74;21105;-58
2022/10/29 10:26:30;;;;;;;1.60;0.90;;;;;;;18.69;48.79;102352.52;1899105;74;21006;-54
2022/10/29 10:29:20;;;;;;;1.10;0.68;;;;;;;18.43;49.72;102353.28;1900925;74;21030;-60
2022/10/29 10:31:56;;;;;;;10.10;2.40;;;;;;;18.23;49.70;102360.00;1900753;74;21120;-55
2022/10/29 10:34:34;;;;;;;1.90;1.00;;;;;;;17.72;49.48;102351.55;1898037;74;21111;-53
2022/10/29 10:37:19;;;;;;;1.32;0.78;;;;;;;17.35;49.77;102344.70;1901247;74;21566;-54
2022/10/29 10:40:03;;;;;;;3.27;1.15;;;;;;;17.12;50.47;102342.12;1906568;74;21009;-54
2022/10/29 10:42:35;;;;;;;;;;;;;;;16.97;50.90;102338.29;1899434;74;21485;-56
2022/10/29 10:45:11;;;;;;;5.55;4.50;;;;;;;16.98;51.13;102326.70;1893613;75;20120;-52
2022/10/29 10:47:46;;;;;;;4.00;1.50;;;;;;;17.03;50.96;102335.84;1894753;74;21559;-55
2022/10/29 10:50:17;;;;;;;3.12;1.10;;;;;;;17.01;50.88;102325.73;1893288;76;21569;-55
2022/10/29 10:52:47;;;;;;;3.60;1.52;;;;;;;16.96;51.00;102326.76;1891894;74;21187;-54
2022/10/29 10:55:28;;;;;;;2.52;0.90;;;;;;;16.73;51.08;102317.02;1891000;76;21093;-59
2022/10/29 10:58:20;;;;;;;1.40;0.72;;;;;;;16.59;51.44;102329.99;1891215;76;21545;-58
2022/10/29 11:01:00;;;;;;;5.95;2.10;;;;;;;16.49;51.93;102326.84;1891377;74;21039;-59
2022/10/29 11:03:40;;;;;;;5.50;1.15;;;;;;;16.31;52.19;102327.55;1890041;76;21054;-57
2022/10/29 11:06:18;;;;;;;3.98;1.30;;;;;;;16.15;52.62;102326.77;1873844;75;21034;-59
2022/10/29 11:08:52;;;;;;;4.33;1.22;;;;;;;15.99;52.94;102323.83;1904798;74;21413;-59
2022/10/29 11:11:27;;;;;;;3.45;1.00;;;;;;;15.83;53.28;102319.99;1924025;74;21043;-59
2022/10/29 11:13:58;;;;;;;1.45;0.82;;;;;;;15.65;53.48;102317.48;1923525;74;21011;-58
2022/10/29 11:16:39;;;;;;;1.47;0.90;;;;;;;15.46;53.64;102323.91;1922283;74;21088;-58
2022/10/29 11:19:29;;;;;;;4.08;1.30;;;;;;;15.34;54.00;102317.22;1921224;74;21010;-62
2022/10/29 11:22:06;;;;;;;2.55;1.07;;;;;;;15.24;54.34;102317.99;1891142;75;21062;-59
2022/10/29 11:24:41;;;;;;;4.53;1.47;;;;;;;15.21;54.46;102319.88;1890358;76;21155;-57
2022/10/29 11:27:34;;;;;;;2.42;0.90;;;;;;;15.17;54.66;102320.91;1891190;76;21122;-59
2022/10/29 11:30:08;;;;;;;7.87;2.40;;;;;;;15.14;54.72;102322.33;1891384;76;21056;-59
2022/10/29 11:32:52;;;;;;;15.55;2.33;;;;;;;15.09;54.85;102316.30;1890902;76;21560;-58
2022/10/29 11:35:23;;;;;;;4.62;1.80;;;;;;;15.04;55.08;102323.95;1891192;75;21091;-57
2022/10/29 11:38:01;;;;;;;4.15;1.50;;;;;;;15.02;55.13;102321.81;1890371;76;21072;-55
2022/10/29 11:40:47;;;;;;;1.32;1.00;;;;;;;14.96;55.25;102319.38;1889399;76;21207;-60
2022/10/29 11:43:19;;;;;;;3.98;1.30;;;;;;;14.91;55.37;102319.97;1891144;75;21509;-59
2022/10/29 11:46:09;;;;;;;3.22;1.32;;;;;;;14.87;55.62;102322.31;1891187;75;21034;-58
2022/10/29 11:48:50;;;;;;;8.75;1.80;;;;;;;14.84;55.68;102319.75;1891243;75;21168;-60
2022/10/29 11:51:41;;;;;;;9.68;1.30;;;;;;;14.77;55.90;102315.13;1891076;76;21074;-60
2022/10/29 11:54:31;;;;;;;3.95;1.17;;;;;;;14.74;56.06;102317.00;1893796;74;21175;-58